createdAt,value
2019-03-18T00:03:39.483Z,96745.63
2019-03-18T00:08:41.156Z,96763.03
2019-03-18T00:13:42.800Z,96768.08
2019-03-18T00:18:44.356Z,96775.97
2019-03-18T00:23:46.051Z,96782.23
2019-03-18T00:28:47.747Z,96801.07
2019-03-18T00:33:49.300Z,96808.70
2019-03-18T00:38:50.857Z,96819.91
2019-03-18T00:43:52.559Z,96822.98
2019-03-18T00:48:54.623Z,96835.61
2019-03-18T00:53:56.322Z,96842.98
2019-03-18T00:58:57.895Z,96849.68
2019-03-18T01:03:59.548Z,96869.23
2019-03-18T01:09:01.476Z,96877.11
2019-03-18T01:14:04.653Z,96892.63
2019-03-18T01:19:06.284Z,96903.05
2019-03-18T01:24:07.857Z,96911.06
2019-03-18T01:29:09.414Z,96924.94
2019-03-18T01:34:10.979Z,96943.40
2019-03-18T01:39:12.552Z,96948.55
2019-03-18T01:44:14.159Z,96968.66
2019-03-18T01:49:16.016Z,96973.17
2019-03-18T01:54:17.639Z,96978.03
2019-03-18T01:59:19.178Z,96987.78
2019-03-18T02:04:20.836Z,96994.52
2019-03-18T02:09:22.383Z,97009.00
2019-03-18T02:14:24.045Z,97019.95
2019-03-18T02:19:27.505Z,97021.86
2019-03-18T02:24:29.356Z,97023.41
2019-03-18T02:29:30.948Z,97029.63
2019-03-18T02:34:33.600Z,97046.76
2019-03-18T02:39:35.151Z,97052.40
2019-03-18T02:44:36.780Z,97057.67
2019-03-18T02:49:38.291Z,97060.05
2019-03-18T02:54:39.933Z,97058.86
2019-03-18T02:59:41.509Z,97064.01
2019-03-18T03:04:43.097Z,97074.18
2019-03-18T03:09:44.649Z,97084.72
2019-03-18T03:14:46.235Z,97084.23
2019-03-18T03:19:47.782Z,97090.84
2019-03-18T03:24:51.392Z,97090.11
2019-03-18T03:29:52.988Z,97089.28
2019-03-18T03:34:54.728Z,97103.52
2019-03-18T03:39:56.273Z,97111.30
2019-03-18T03:44:57.863Z,97105.17
2019-03-18T03:49:59.409Z,97113.20
2019-03-18T03:55:01.153Z,97112.63
2019-03-18T04:00:15.637Z,97127.12
2019-03-18T04:05:17.180Z,97130.83
2019-03-18T04:10:18.723Z,97140.16
2019-03-18T04:15:20.433Z,97142.66
2019-03-18T04:20:21.976Z,97146.37
2019-03-18T04:25:23.571Z,97151.50
2019-03-18T04:30:25.178Z,97153.99
2019-03-18T04:35:26.812Z,97156.97
2019-03-18T04:40:28.541Z,97147.61
2019-03-18T04:45:30.096Z,97162.84
2019-03-18T04:50:31.761Z,97169.33
2019-03-18T04:55:33.314Z,97167.28
2019-03-18T05:00:34.915Z,97195.87
2019-03-18T05:05:36.471Z,97192.61
2019-03-18T05:10:38.018Z,97195.93
2019-03-18T05:15:39.607Z,97200.48
2019-03-18T05:20:41.577Z,97210.27
2019-03-18T05:25:43.180Z,97210.66
2019-03-18T05:30:44.740Z,97209.09
2019-03-18T05:35:46.330Z,97206.05
2019-03-18T05:40:47.959Z,97218.24
2019-03-18T05:45:49.512Z,97226.14
2019-03-18T05:50:51.066Z,97222.28
2019-03-18T05:55:52.728Z,97225.16
2019-03-18T06:00:54.286Z,97231.30
2019-03-18T06:05:55.836Z,97242.42
2019-03-18T06:10:57.468Z,97227.73
2019-03-18T06:15:59.052Z,97243.22
2019-03-18T06:21:00.604Z,97256.53
2019-03-18T06:26:02.312Z,97260.18
2019-03-18T06:31:03.989Z,97254.81
2019-03-18T06:36:05.536Z,97256.08
2019-03-18T06:41:07.162Z,97260.42
2019-03-18T06:46:08.719Z,97254.84
2019-03-18T06:51:10.276Z,97258.52
2019-03-18T06:56:11.864Z,97262.36
2019-03-18T07:01:13.412Z,97267.89
2019-03-18T07:06:14.968Z,97277.98
2019-03-18T07:11:16.584Z,97287.67
2019-03-18T07:16:18.211Z,97270.52
2019-03-18T07:21:19.889Z,97286.60
2019-03-18T07:26:21.447Z,97275.47
2019-03-18T07:31:23.047Z,97250.86
2019-03-18T07:36:24.604Z,97275.10
2019-03-18T07:41:26.227Z,97310.02
2019-03-18T07:46:27.821Z,97307.72
2019-03-18T07:51:29.363Z,97303.17
2019-03-18T07:56:30.984Z,97317.11
2019-03-18T08:01:32.536Z,97325.59
2019-03-18T08:06:34.166Z,97328.30
2019-03-18T08:11:36.365Z,97331.52
2019-03-18T08:16:37.927Z,97344.08
2019-03-18T08:21:39.519Z,97347.17
2019-03-18T08:26:41.115Z,97333.97
2019-03-18T08:31:42.672Z,97344.77
2019-03-18T08:36:44.557Z,97345.14
2019-03-18T08:41:46.219Z,97347.13
2019-03-18T08:46:47.986Z,97331.44
2019-03-18T08:51:49.531Z,97328.69
2019-03-18T08:56:51.245Z,97324.30
2019-03-18T09:01:52.796Z,97331.27
2019-03-18T09:06:54.397Z,97325.89
2019-03-18T09:11:55.959Z,97334.17
2019-03-18T09:16:57.527Z,97334.66
2019-03-18T09:21:59.070Z,97320.61
2019-03-18T09:27:02.628Z,97356.77
2019-03-18T09:32:04.254Z,97364.91
2019-03-18T09:37:05.811Z,97366.81
2019-03-18T09:42:07.744Z,97383.40
2019-03-18T09:47:09.585Z,97372.71
2019-03-18T09:52:11.187Z,97376.19
2019-03-18T09:57:31.397Z,97383.03
2019-03-18T10:02:33.454Z,97391.66
2019-03-18T10:07:35.008Z,97391.44
2019-03-18T10:12:36.615Z,97388.31
2019-03-18T10:17:39.287Z,97381.83
2019-03-18T10:22:40.956Z,97383.64
2019-03-18T10:27:42.558Z,97377.63
2019-03-18T10:32:44.108Z,97376.30
2019-03-18T10:37:45.718Z,97388.80
2019-03-18T10:42:47.389Z,97383.17
2019-03-18T10:47:48.943Z,97374.14
2019-03-18T10:52:50.522Z,97395.06
2019-03-18T10:57:52.050Z,97394.81
2019-03-18T11:02:53.779Z,97406.48
2019-03-18T11:07:55.342Z,97403.33
2019-03-18T11:12:56.924Z,97383.91
2019-03-18T11:17:58.467Z,97403.59
2019-03-18T11:23:00.023Z,97402.84
2019-03-18T11:28:01.626Z,97409.14
2019-03-18T11:33:03.574Z,97411.55
2019-03-18T11:38:05.223Z,97413.11
2019-03-18T11:43:06.849Z,97414.06
2019-03-18T11:48:08.407Z,97411.09
2019-03-18T11:53:14.481Z,97400.42
2019-03-18T11:58:13.735Z,97395.54
2019-03-18T12:03:15.291Z,97420.53
2019-03-18T12:08:16.924Z,97416.80
2019-03-18T12:13:18.482Z,97408.70
2019-03-18T12:18:20.379Z,97397.20
2019-03-18T12:23:21.973Z,97403.78
2019-03-18T12:28:23.722Z,97395.11
2019-03-18T12:33:25.273Z,97405.80
2019-03-18T12:38:26.880Z,97403.78
2019-03-18T12:43:28.619Z,97413.41
2019-03-18T12:48:30.279Z,97410.00
2019-03-18T12:53:32.055Z,97399.08
2019-03-18T12:58:33.650Z,97407.88
2019-03-18T13:03:35.440Z,97405.47
2019-03-18T13:08:37.261Z,97401.96
2019-03-18T13:13:38.908Z,97409.73
2019-03-18T13:18:40.732Z,97401.92
2019-03-18T13:23:42.295Z,97396.73
2019-03-18T13:28:43.946Z,97391.77
2019-03-18T13:33:45.548Z,97394.52
2019-03-18T13:38:47.144Z,97403.38
2019-03-18T13:43:48.767Z,97400.05
2019-03-18T13:48:50.640Z,97403.61
2019-03-18T13:53:52.194Z,97405.89
2019-03-18T13:58:53.807Z,97404.81
2019-03-18T14:03:55.367Z,97408.42
2019-03-18T14:08:56.972Z,97410.37
2019-03-18T14:13:58.760Z,97406.98
2019-03-18T14:19:00.308Z,97405.12
2019-03-18T14:24:01.967Z,97407.18
2019-03-18T14:29:03.623Z,97410.00
2019-03-18T14:34:05.497Z,97423.24
2019-03-18T14:39:07.152Z,97414.97
2019-03-18T14:44:08.830Z,97420.36
2019-03-18T14:49:10.389Z,97425.06
2019-03-18T14:54:11.966Z,97423.05
2019-03-18T14:59:13.520Z,97424.00
2019-03-18T15:04:15.088Z,97416.36
2019-03-18T15:09:17.787Z,97422.66
2019-03-18T15:14:19.370Z,97428.94
2019-03-18T15:19:20.934Z,97426.78
2019-03-18T15:24:22.488Z,97437.25
2019-03-18T15:29:24.041Z,97463.23
2019-03-18T15:34:25.619Z,97463.27
2019-03-18T15:39:27.312Z,97469.66
2019-03-18T15:44:28.969Z,97479.02
2019-03-18T15:49:31.601Z,97474.48
2019-03-18T15:54:33.576Z,97498.87
2019-03-18T15:59:35.199Z,97506.31
2019-03-18T16:04:36.808Z,97508.47
2019-03-18T16:09:38.417Z,97519.86
2019-03-18T16:14:39.985Z,97544.27
2019-03-18T16:19:41.557Z,97541.95
2019-03-18T16:24:43.155Z,97532.81
2019-03-18T16:29:44.716Z,97547.67
2019-03-18T16:34:46.264Z,97537.20
2019-03-18T16:39:47.860Z,97541.48
2019-03-18T16:44:49.516Z,97545.55
2019-03-18T16:49:51.074Z,97553.77
2019-03-18T16:54:52.652Z,97580.13
2019-03-18T16:59:54.221Z,97585.47
2019-03-18T17:04:55.789Z,97587.94
2019-03-18T17:09:57.398Z,97602.66
2019-03-18T17:14:58.976Z,97607.83
2019-03-18T17:20:00.538Z,97599.84
2019-03-18T17:25:11.241Z,97614.73
2019-03-18T17:30:16.643Z,97627.99
2019-03-18T17:35:18.427Z,97640.00
2019-03-18T17:40:20.113Z,97639.96
2019-03-18T17:45:21.905Z,97655.40
2019-03-18T17:50:28.418Z,97665.17
2019-03-18T17:55:30.007Z,97665.62
2019-03-18T18:00:39.634Z,97676.98
2019-03-18T18:05:41.391Z,97677.60
2019-03-18T18:10:42.950Z,97690.62
2019-03-18T18:15:44.510Z,97700.61
2019-03-18T18:20:46.134Z,97698.27
2019-03-18T18:25:47.744Z,97710.92
2019-03-18T18:30:51.733Z,97717.86
2019-03-18T18:35:53.807Z,97731.56
2019-03-18T18:40:55.366Z,97729.48
2019-03-18T18:45:56.972Z,97728.45
2019-03-18T18:50:58.529Z,97733.44
2019-03-18T18:56:00.129Z,97745.67
2019-03-18T19:01:01.694Z,97739.19
2019-03-18T19:06:03.711Z,97749.62
2019-03-18T19:11:05.595Z,97747.92
2019-03-18T19:16:08.265Z,97752.64
2019-03-18T19:21:09.816Z,97760.72
2019-03-18T19:26:11.432Z,97766.58
2019-03-18T19:31:13.003Z,97766.58
2019-03-18T19:36:14.880Z,97772.36
2019-03-18T19:41:16.451Z,97773.39
2019-03-18T19:46:18.176Z,97780.91
2019-03-18T19:51:19.770Z,97781.95
2019-03-18T19:56:21.374Z,97789.58
2019-03-18T20:01:22.988Z,97794.56
2019-03-18T20:06:24.543Z,97791.55
2019-03-18T20:11:26.097Z,97799.36
2019-03-18T20:16:27.668Z,97795.81
2019-03-18T20:21:29.224Z,97805.40
2019-03-18T20:26:30.904Z,97802.58
2019-03-18T20:31:32.530Z,97800.90
2019-03-18T20:36:35.192Z,97809.73
2019-03-18T20:41:36.886Z,97808.33
2019-03-18T20:46:38.591Z,97818.19
2019-03-18T20:51:40.251Z,97816.39
2019-03-18T20:56:42.017Z,97819.86
2019-03-18T21:01:43.677Z,97824.00
2019-03-18T21:06:45.332Z,97826.64
2019-03-18T21:11:47.049Z,97826.60
2019-03-18T21:16:48.708Z,97839.56
2019-03-18T21:21:50.271Z,97843.98
2019-03-18T21:26:51.829Z,97845.84
2019-03-18T21:31:53.414Z,97855.69
2019-03-18T21:36:58.940Z,97864.63
2019-03-18T21:42:00.853Z,97880.84
2019-03-18T21:47:02.967Z,97880.25
2019-03-18T21:52:04.630Z,97875.17
2019-03-18T21:57:06.289Z,97877.80
2019-03-18T22:02:08.045Z,97873.66
2019-03-18T22:07:09.725Z,97877.75
2019-03-18T22:12:11.325Z,97877.21
2019-03-18T22:17:12.876Z,97880.95
2019-03-18T22:22:14.469Z,97882.72
2019-03-18T22:27:16.327Z,97883.58
2019-03-18T22:32:17.963Z,97883.58
2019-03-18T22:37:19.520Z,97879.77
2019-03-18T22:42:21.069Z,97880.39
2019-03-18T22:47:22.734Z,97888.55
2019-03-18T22:52:24.283Z,97884.79
2019-03-18T22:57:25.931Z,97885.90
2019-03-18T23:02:27.584Z,97879.03
2019-03-18T23:07:29.139Z,97887.00
2019-03-18T23:12:30.722Z,97883.59
2019-03-18T23:17:32.295Z,97893.27
2019-03-18T23:22:33.953Z,97897.09
2019-03-18T23:27:35.549Z,97904.46
2019-03-18T23:32:37.143Z,97908.01
2019-03-18T23:37:38.915Z,97913.17
2019-03-18T23:42:40.509Z,97913.92
2019-03-18T23:47:42.172Z,97916.02
2019-03-18T23:52:43.727Z,97920.79
2019-03-18T23:57:45.287Z,97917.33
